Drachten Airfield

EHDR · Friesland, The Netherlands

METAR history EHDR · Drachten Airfield

Below you see METARs of the last few days. Select a year to browse through older METARs, from the year 2007 onwards.

November 29, 2022

Time Code Weather Temp. Visibility Ceiling Wind METAR/SPECI
22:25
L
3 °C 700 m - 290° 290° 4 kt METAR EHLW 292125Z AUTO 29004KT 0700 FG NCD 03/03 Q1022 RED
21:55
L
4 °C 300 m - 280° 280° 3 kt METAR EHLW 292055Z AUTO 28003KT 0300 FG NCD 04/04 Q1021 RED
21:41
L
5 °C 1 km - 260° 260° 1 kt METAR EHLW 292041Z AUTO 26001KT 1000 R05/1100U BR NCD 05/05 Q1021 AMB TEMPO 4000 MIFG
21:37
L
5 °C 500 m - 270° 270° 1 kt METAR EHLW 292037Z AUTO 27001KT 0500 R05/0900U FG NCD 05/05 Q1021 RED TEMPO 4000 MIFG
21:32
I
5 °C 2.1 km - Var Var 1 kt METAR EHLW 292032Z AUTO VRB01KT 2100 R05/1100D BR FEW026 05/05 Q1021 YLO TEMPO 4000 MIFG
21:28
L
6 °C 500 m 2,400 ft Var Var 1 kt METAR EHLW 292028Z AUTO VRB01KT 0500 R05/0600D FG BKN024 06/05 Q1021 RED TEMPO 4000 MIFG
21:25
L
6 °C 1.2 km 2,300 ft Var 000° 0 kt METAR EHLW 292025Z AUTO 00000KT 1200 R05/1100D BR BKN023 OVC026 06/05 Q1021 AMB TEMPO 4000 MIFG
21:18
L
6 °C 1.1 km 2,300 ft Var 000° 0 kt METAR EHLW 292018Z AUTO 00000KT 1100 R05/1600D BR OVC023 06/05 Q1021 AMB TEMPO 4000 MIFG
21:04
I
6 °C 4.5 km 2,400 ft Var 000° 0 kt METAR EHLW 292004Z AUTO 00000KT 4500 BR OVC024 06/05 Q1021 GRN TEMPO 4000 MIFG
20:56
M
5 °C 5 km 2,400 ft Var 000° 0 kt METAR EHLW 291956Z AUTO 00000KT 5000 BR OVC024 05/05 Q1021 WHT TEMPO 4000 MIFG
20:55
I
6 °C 3.3 km 2,200 ft 310° 310° 1 kt METAR EHLW 291955Z AUTO 31001KT 3300 R05/P3000U BR BKN022 OVC025 06/05 Q1021 YLO TEMPO 4000 MIFG
20:47
I
6 °C 4.2 km 2,200 ft 320° 320° 1 kt SPECI EHLW 291947Z AUTO 32001KT 4200 R05/2500D BR OVC022 06/06 Q1021 GRN TEMPO 4000 MIFG
20:30
I
5 °C 2.9 km 2,400 ft 330° 330° 3 kt METAR EHLW 291930Z AUTO 33003KT 2900 R05/2700D BR OVC024 05/05 Q1021 YLO TEMPO 4000 MIFG
20:28
I
6 °C 4.5 km 2,400 ft 330° 330° 3 kt METAR EHLW 291928Z AUTO 33003KT 4500 R05/2900D BR BKN024 06/05 Q1021 GRN TEMPO 4000 MIFG
20:25
I
5 °C 2.4 km - 340° 340° 3 kt METAR EHLW 291925Z AUTO 34003KT 2400 R05/P3000N BR FEW025 05/05 Q1021 YLO NOSIG
20:16
M
6 °C 7 km - Var Var 2 kt METAR EHLW 291916Z AUTO VRB02KT 7000 BR FEW055 06/06 Q1021 WHT NOSIG
20:12
V
6 °C 9 km - Var Var 2 kt METAR EHLW 291912Z AUTO VRB02KT 9000 BR SCT055 06/06 Q1021 BLU NOSIG
19:55
V
6 °C 10 km+ 5,200 ft 340° 340° 2 kt METAR EHLW 291855Z AUTO 34002KT 9999 OVC052 06/06 Q1021 BLU NOSIG
19:36
V
7 °C 8 km 5,200 ft 320° 320° 2 kt METAR EHLW 291836Z AUTO 32002KT 8000 BR OVC052 07/06 Q1021 BLU NOSIG
19:35
M
7 °C 7 km 5,200 ft Var Var 2 kt METAR EHLW 291835Z AUTO VRB02KT 7000 BR OVC052 07/06 Q1021 WHT NOSIG
19:25
V
7 °C 8 km 5,000 ft Var Var 2 kt METAR EHLW 291825Z AUTO VRB02KT 8000 BR OVC050 07/06 Q1020 BLU NOSIG
19:17
V
7 °C 9 km 5,100 ft 330° 330° 1 kt METAR EHLW 291817Z AUTO 33001KT 9000 BR OVC051 07/06 Q1020 BLU NOSIG
19:04
V
7 °C 8 km 5,200 ft 040° 040° 1 kt METAR EHLW 291804Z AUTO 04001KT 8000 BR OVC052 07/06 Q1020 BLU NOSIG
18:58
M
7 °C 7 km 5,200 ft 080° 080° 1 kt METAR EHLW 291758Z AUTO 08001KT 7000 BR OVC052 07/07 Q1020 WHT NOSIG
18:55
V
7 °C 8 km 5,200 ft Var 000° 0 kt METAR EHLW 291755Z AUTO 00000KT 8000 BR OVC052 07/07 Q1020 BLU NOSIG
18:25
V
7 °C 10 km+ 5,000 ft 100° 100° 2 kt METAR EHLW 291725Z AUTO 10002KT 9999 OVC050 07/07 Q1020 BLU NOSIG
18:06
V
7 °C 10 km+ 4,800 ft Var Var 1 kt METAR EHLW 291706Z AUTO VRB01KT 9999 FEW018 OVC048 07/07 Q1020 BLU NOSIG
17:55
M
7 °C 10 km+ 1,700 ft Var Var 1 kt METAR EHLW 291655Z AUTO VRB01KT 9999 OVC017 07/07 Q1020 WHT NOSIG
17:38
M
7 °C 10 km+ 1,500 ft Var Var 2 kt METAR EHLW 291638Z AUTO VRB02KT 9999 FEW013 OVC015 07/07 Q1020 WHT NOSIG
17:25
M
6 °C 10 km+ 1,100 ft 030° 030° 4 kt METAR EHLW 291625Z AUTO 03004KT 9999 BKN011 OVC014 06/06 Q1020 GRN NOSIG
17:10
M
6 °C 10 km+ 1,100 ft 020° 020° 3 kt METAR EHLW 291610Z AUTO 02003KT 360V070 9999 BKN011 OVC048 06/06 Q1019 GRN NOSIG
17:06
V
6 °C 10 km+ 4,800 ft 020° 020° 3 kt METAR EHLW 291606Z AUTO 02003KT 020V080 9999 SCT012 BKN048 BKN053 06/05 Q1019 GRN NOSIG
16:56
V
7 °C 10 km+ 5,400 ft 040° 040° 4 kt METAR EHLW 291556Z AUTO 04004KT 010V080 9999 BKN054 BKN061 07/06 Q1019 BLU NOSIG
16:25
V
7 °C 10 km+ - 040° 040° 4 kt METAR EHLW 291525Z AUTO 04004KT 9999 NCD 07/07 Q1019 BLU TEMPO SCT010 BKN015
15:55
V
9 °C 10 km+ 5,400 ft 020° 020° 2 kt METAR EHLW 291455Z AUTO 02002KT 9999 OVC054 09/08 Q1019 BLU TEMPO SCT010 BKN015
15:25
V
9 °C 10 km+ 5,600 ft 030° 030° 4 kt METAR EHLW 291425Z AUTO 03004KT 360V070 9999 BKN056 OVC062 09/08 Q1019 BLU TEMPO SCT010 BKN015
15:03
V
10 °C 10 km+ 5,500 ft 030° 030° 4 kt METAR EHLW 291403Z AUTO 03004KT 350V070 9999 FEW031 OVC055 10/08 Q1019 BLU TEMPO SCT010 BKN015
14:55
V
10 °C 10 km+ 5,500 ft 030° 030° 5 kt METAR EHLW 291355Z AUTO 03005KT 360V070 9999 FEW047 OVC055 10/08 Q1019 BLU TEMPO SCT010 BKN015
14:39
V
10 °C 10 km+ 3,300 ft 020° 020° 5 kt METAR EHLW 291339Z AUTO 02005KT 350V050 9999 FEW009 SCT028 OVC033 10/08 Q1019 BLU TEMPO SCT010 BKN015
14:25
M
10 °C 10 km+ 1,300 ft 010° 010° 5 kt METAR EHLW 291325Z AUTO 01005KT 9999 FEW009 SCT010 BKN013 10/08 Q1018 GRN TEMPO SCT010 BKN015
14:20
M
10 °C 10 km+ 1,300 ft 010° 010° 5 kt SPECI EHLW 291320Z AUTO 01005KT 9999 FEW009 SCT011 BKN013 10/08 Q1018 GRN TEMPO SCT010 BKN015
14:19
M
10 °C 10 km+ 1,600 ft 010° 010° 5 kt METAR EHLW 291319Z AUTO 01005KT 9999 FEW010 SCT014 BKN016 10/08 Q1018 GRN TEMPO SCT015
14:12
M
10 °C 10 km+ 1,500 ft 010° 010° 5 kt METAR EHLW 291312Z AUTO 01005KT 9999 FEW012 OVC015 10/08 Q1018 WHT TEMPO SCT015
14:09
M
10 °C 10 km+ 1,600 ft 020° 020° 5 kt METAR EHLW 291309Z AUTO 02005KT 9999 SCT014 BKN016 BKN027 10/08 Q1018 GRN TEMPO SCT015
14:02
V
10 °C 10 km+ 5,300 ft 030° 030° 5 kt METAR EHLW 291302Z AUTO 03005KT 350V050 9999 SCT014 OVC053 10/08 Q1018 GRN
13:55
V
10 °C 10 km+ 4,800 ft 030° 030° 5 kt METAR EHLW 291255Z AUTO 03005KT 9999 BKN048 OVC053 10/09 Q1018 BLU
13:39
V
10 °C 10 km+ 5,300 ft 020° 020° 5 kt SPECI EHLW 291239Z AUTO 02005KT 9999 FEW011 OVC053 10/08 Q1018 BLU
13:26
M
10 °C 10 km+ 1,400 ft 020° 020° 4 kt SPECI EHLW 291226Z AUTO 02004KT 9999 FEW011 BKN014 BKN017 10/08 Q1018 GRN
13:25
V
10 °C 10 km+ 5,500 ft 020° 020° 4 kt METAR EHLW 291225Z AUTO 02004KT 340V040 9999 FEW011 SCT014 OVC055 10/08 Q1018 GRN
13:13
V
10 °C 10 km+ 5,600 ft 010° 010° 4 kt METAR EHLW 291213Z AUTO 01004KT 330V040 9999 FEW011 OVC056 10/08 Q1018 BLU
13:06
V
10 °C 10 km+ 5,600 ft 020° 020° 4 kt METAR EHLW 291206Z AUTO 02004KT 9999 FEW011 SCT016 BKN056 10/09 Q1018 WHT
13:01
V
10 °C 10 km+ 17,000 ft 030° 030° 5 kt METAR EHLW 291201Z AUTO 03005KT 9999 FEW006 SCT056 BKN170 10/09 Q1018 BLU
12:55
V
11 °C 10 km+ 5,900 ft 020° 020° 5 kt METAR EHLW 291155Z AUTO 02005KT 9999 FEW006 SCT007 BKN059 11/09 Q1018 GRN
12:27
M
10 °C 10 km+ 2,900 ft Var Var 1 kt METAR EHLW 291127Z AUTO VRB01KT 9999 FEW011 BKN029 BKN032 10/10 Q1018 BLU
12:25
M
10 °C 10 km+ 1,100 ft 360° 360° 3 kt METAR EHLW 291125Z AUTO 36003KT 320V030 9999 FEW009 BKN011 BKN029 10/09 Q1018 GRN
12:16
I
10 °C 10 km+ 800 ft 330° 330° 4 kt METAR EHLW 291116Z AUTO 33004KT 310V010 9999 FEW002 BKN008 OVC010 10/09 Q1018 GRN
11:55
L
10 °C 10 km+ 400 ft 300° 300° 6 kt METAR EHLW 291055Z AUTO 30006KT 9999 SCT003 BKN004 BKN006 10/09 Q1017 YLO
11:25
L
10 °C 10 km+ 400 ft 300° 300° 6 kt METAR EHLW 291025Z AUTO 30006KT 240V320 9999 BKN004 OVC005 10/09 Q1017 REDZ YLO
11:21
L
10 °C 9 km 400 ft 300° 300° 6 kt METAR EHLW 291021Z AUTO 30006KT 240V310 9000 -DZ BKN004 OVC005 10/09 Q1017 YLO
11:14
I
9 °C 10 km+ 500 ft 300° 300° 6 kt METAR EHLW 291014Z AUTO 30006KT 240V310 9999 -RADZ BKN005 BKN006 OVC008 09/09 Q1017 YLO
11:07
I
9 °C 10 km+ 500 ft 290° 290° 7 kt METAR EHLW 291007Z AUTO 29007KT 9999 BKN005 BKN009 BKN010 09/09 Q1017 YLO
11:01
M
9 °C 10 km+ 1,300 ft 290° 290° 7 kt METAR EHLW 291001Z AUTO 29007KT 9999 FEW006 SCT009 BKN013 09/09 Q1017 GRN
10:55
M
9 °C 10 km+ 1,100 ft 290° 290° 7 kt METAR EHLW 290955Z AUTO 29007KT 250V310 9999 FEW009 BKN011 BKN014 09/09 Q1017 REDZ GRN
10:43
M
9 °C 10 km+ 1,600 ft 290° 290° 7 kt METAR EHLW 290943Z AUTO 29007KT 9999 FEW007 BKN016 OVC021 09/08 Q1017 WHT
10:34
M
9 °C 5 km 1,900 ft 290° 290° 7 kt METAR EHLW 290934Z AUTO 29007KT 260V320 5000 +DZRA FEW006 SCT015 OVC019 09/08 Q1017 WHT
10:30
I
9 °C 4.9 km 2,000 ft 290° 290° 7 kt METAR EHLW 290930Z AUTO 29007KT 260V320 4900 -RA FEW013 SCT016 OVC020 09/08 Q1017 GRN
10:25
M
9 °C 10 km+ 2,500 ft 290° 290° 7 kt METAR EHLW 290925Z AUTO 29007KT 250V310 9999 SCT018 SCT021 BKN025 09/08 Q1017 REDZ WHT
10:16
M
9 °C 6 km 2,200 ft 290° 290° 6 kt METAR EHLW 290916Z AUTO 29006KT 250V320 6000 +DZ SCT019 BKN022 BKN031 09/08 Q1017 WHT
10:12
I
9 °C 4.1 km 2,200 ft 290° 290° 6 kt METAR EHLW 290912Z AUTO 29006KT 240V320 4100 DZRA SCT019 BKN022 BKN027 09/08 Q1017 GRN
10:06
I
8 °C 3.7 km 2,600 ft 290° 290° 6 kt SPECI EHLW 290906Z AUTO 29006KT 240V310 3700 -RA FEW020 BKN026 OVC030 08/08 Q1017 GRN
10:02
M
8 °C 5 km 3,100 ft 280° 280° 5 kt METAR EHLW 290902Z AUTO 28005KT 240V310 5000 -RA SCT027 BKN031 OVC036 08/07 Q1017 WHT
09:59
I
8 °C 3.3 km 3,200 ft 270° 270° 5 kt METAR EHLW 290859Z AUTO 27005KT 240V300 3300 -RA SCT027 BKN032 OVC038 08/07 Q1017 YLO
09:55
M
7 °C 6 km 3,200 ft 260° 260° 4 kt METAR EHLW 290855Z AUTO 26004KT 240V300 6000 -UP SCT027 BKN032 OVC038 07/07 Q1017 WHT
09:41
V
7 °C 10 km+ 4,300 ft 280° 280° 5 kt METAR EHLW 290841Z AUTO 28005KT 250V310 9999 FEW015 SCT019 BKN043 07/06 Q1017 WHT
09:34
V
6 °C 10 km+ 4,400 ft 290° 290° 5 kt SPECI EHLW 290834Z AUTO 29005KT 240V310 9999 FEW017 SCT035 BKN044 06/06 Q1017 BLU
09:30
V
6 °C 10 km+ 16,000 ft 290° 290° 5 kt SPECI EHLW 290830Z AUTO 29005KT 240V310 9999 SCT017 SCT056 OVC160 06/06 Q1017 WHT
09:25
V
7 °C 10 km+ 16,000 ft 280° 280° 5 kt METAR EHLW 290825Z AUTO 28005KT 250V310 9999 OVC160 07/06 Q1016 BLU
09:10
V
7 °C 10 km+ 16,000 ft 290° 290° 7 kt METAR EHLW 290810Z AUTO 29007KT 250V320 9999 FEW020 OVC160 07/06 Q1016 BLU
09:00
V
6 °C 10 km+ 15,000 ft 290° 290° 8 kt METAR EHLW 290800Z AUTO 29008KT 9999 SCT020 OVC150 06/06 Q1016 WHT
08:55
V
5 °C 10 km+ 15,000 ft 290° 290° 7 kt METAR EHLW 290755Z AUTO 29007KT 260V320 9999 OVC150 05/05 Q1016 BLU
08:42
V
5 °C 8 km 15,000 ft 280° 280° 5 kt METAR EHLW 290742Z AUTO 28005KT 220V290 8000 BR FEW022 OVC150 05/05 Q1016 BLU
08:30
M
5 °C 7 km 15,000 ft 280° 280° 5 kt SPECI EHLW 290730Z AUTO 28005KT 7000 BR FEW015 SCT022 OVC150 05/05 Q1016 WHT
08:27
V
5 °C 8 km 15,000 ft 280° 280° 5 kt METAR EHLW 290727Z AUTO 28005KT 8000 BR FEW015 OVC150 05/05 Q1016 BLU
08:25
M
5 °C 6 km 15,000 ft 280° 280° 5 kt METAR EHLW 290725Z AUTO 28005KT 6000 BR FEW015 OVC150 05/05 Q1016 WHT
07:55
M
4 °C 6 km 2,000 ft 240° 240° 3 kt METAR EHLW 290655Z AUTO 24003KT 6000 BR SCT016 OVC020 04/04 Q1016 WHT
07:39
M
4 °C 6 km 2,600 ft 230° 230° 3 kt METAR EHLW 290639Z AUTO 23003KT 6000 BR FEW016 SCT021 BKN026 04/04 Q1016 WHT
07:25
M
4 °C 5 km 4,300 ft 240° 240° 5 kt METAR EHLW 290625Z AUTO 24005KT 5000 BR BKN043 OVC150 04/04 Q1016 WHT
07:19
I
4 °C 4.4 km 15,000 ft 250° 250° 6 kt METAR EHLW 290619Z AUTO 25006KT 4400 BR OVC150 04/04 Q1016 GRN
06:55
I
4 °C 3 km 15,000 ft 250° 250° 5 kt METAR EHLW 290555Z AUTO 25005KT 3000 BR OVC150 04/04 Q1015 YLO
06:25
I
4 °C 3.1 km 13,000 ft 250° 250° 6 kt METAR EHLW 290525Z AUTO 25006KT 3100 BR SCT015 OVC130 04/04 Q1015 YLO
06:16
I
4 °C 3.2 km 13,000 ft 240° 240° 4 kt METAR EHLW 290516Z AUTO 24004KT 3200 BR SCT016 OVC130 04/04 Q1015 YLO
06:12
I
4 °C 3.7 km 1,600 ft 230° 230° 4 kt METAR EHLW 290512Z AUTO 23004KT 3700 BR BKN016 OVC130 04/04 Q1015 GRN
06:05
I
4 °C 3.5 km 1,600 ft 230° 230° 4 kt METAR EHLW 290505Z AUTO 23004KT 3500 BR BKN016 OVC130 04/04 Q1015 YLO
05:55
I
4 °C 4.4 km 1,600 ft 200° 200° 3 kt METAR EHLW 290455Z AUTO 20003KT 4400 BR BKN016 OVC120 04/04 Q1015 GRN
05:46
I
4 °C 4.5 km 1,500 ft 200° 200° 2 kt SPECI EHLW 290446Z AUTO 20002KT 4500 BR OVC015 04/04 Q1015 GRN
05:30
I
4 °C 4.1 km 1,400 ft 210° 210° 4 kt METAR EHLW 290430Z AUTO 21004KT 4100 BR BKN014 OVC016 04/04 Q1015 GRN
05:26
I
4 °C 3.9 km 1,500 ft 210° 210° 4 kt METAR EHLW 290426Z AUTO 21004KT 3900 BR BKN015 OVC150 04/04 Q1015 GRN
05:25
I
4 °C 3.6 km 1,400 ft 210° 210° 3 kt METAR EHLW 290425Z AUTO 21003KT 3600 BR BKN014 OVC150 04/04 Q1015 YLO
05:18
I
4 °C 3.6 km 15,000 ft 210° 210° 3 kt METAR EHLW 290418Z AUTO 21003KT 3600 BR SCT014 OVC150 04/04 Q1015 YLO
04:55
I
4 °C 2.6 km 13,000 ft 200° 200° 2 kt METAR EHLW 290355Z AUTO 20002KT 2600 BR FEW016 OVC130 04/04 Q1014 YLO
04:39
I
4 °C 2.5 km 15,000 ft 210° 210° 3 kt METAR EHLW 290339Z AUTO 21003KT 2500 BR OVC150 04/04 Q1014 YLO
04:26
I
4 °C 1.6 km 16,000 ft 200° 200° 3 kt METAR EHLW 290326Z AUTO 20003KT 1600 BR OVC160 04/04 Q1014 YLO
04:25
L
4 °C 1.3 km 16,000 ft 200° 200° 3 kt METAR EHLW 290325Z AUTO 20003KT 1300 BR OVC160 04/04 Q1014 AMB
03:55
L
4 °C 1.3 km 15,000 ft 210° 210° 3 kt METAR EHLW 290255Z AUTO 21003KT 1300 BR OVC150 04/04 Q1014 AMB
03:25
I
4 °C 2.4 km 16,000 ft 220° 220° 3 kt METAR EHLW 290225Z AUTO 22003KT 2400 BR OVC160 04/04 Q1014 YLO
03:09
I
4 °C 3 km 15,000 ft 220° 220° 3 kt METAR EHLW 290209Z AUTO 22003KT 3000 BR SCT016 SCT025 OVC150 04/04 Q1014 YLO
02:55
I
5 °C 2.4 km 17,000 ft 210° 210° 2 kt METAR EHLW 290155Z AUTO 21002KT 2400 BR FEW016 SCT020 OVC170 05/05 Q1014 YLO
02:45
I
5 °C 2 km 14,000 ft 200° 200° 3 kt SPECI EHLW 290145Z AUTO 20003KT 2000 BR FEW000 SCT020 OVC140 05/04 Q1014 YLO
02:40
I
5 °C 1.8 km 1,600 ft 200° 200° 3 kt METAR EHLW 290140Z AUTO 20003KT 1800 BR BKN000 BKN016 BKN020 05/04 Q1014 RED
02:26
I
5 °C 1.7 km 14,000 ft 210° 210° 3 kt METAR EHLW 290126Z AUTO 21003KT 1700 BR FEW000 OVC140 05/05 Q1014 YLO
02:25
L
5 °C 1.1 km 14,000 ft 210° 210° 4 kt METAR EHLW 290125Z AUTO 21004KT 1100 BR FEW000 SCT026 OVC140 05/05 Q1014 AMB
02:15
L
5 °C 900 m 14,000 ft 210° 210° 4 kt METAR EHLW 290115Z AUTO 21004KT 0900 FG FEW000 SCT024 OVC140 05/05 Q1014 AMB
01:55
L
5 °C 900 m - 200° 200° 3 kt METAR EHLW 290055Z AUTO 20003KT 0900 FG OVC000 05/05 Q1013 RED
01:40
L
5 °C 800 m - 200° 200° 3 kt METAR EHLW 290040Z AUTO 20003KT 0800 FG OVC000 05/05 Q1013 RED
01:25
L
5 °C 550 m - 210° 210° 3 kt METAR EHLW 290025Z AUTO 21003KT 0550 FG OVC000 05/05 Q1013 RED
00:55
L
5 °C 400 m - 210° 210° 5 kt METAR EHLW 282355Z AUTO 21005KT 0400 FG OVC000 05/05 Q1013 RED
00:25
L
5 °C 650 m - 200° 200° 4 kt METAR EHLW 282325Z AUTO 20004KT 0650 FG OVC000 05/05 Q1013 RED

November 28, 2022

Time Code Weather Temp. Visibility Ceiling Wind METAR/SPECI
23:55
L
5 °C 800 m - 200° 200° 4 kt METAR EHLW 282255Z AUTO 20004KT 0800 FG OVC000 05/05 Q1013 RED
23:25
L
6 °C 450 m - 190° 190° 5 kt METAR EHLW 282225Z AUTO 19005KT 0450 FG OVC000 06/06 Q1013 RED
22:55
L
6 °C 400 m - 190° 190° 4 kt METAR EHLW 282155Z AUTO 19004KT 150V220 0400 FG OVC000 06/06 Q1013 RED
22:25
L
6 °C 300 m - 200° 200° 4 kt METAR EHLW 282125Z AUTO 20004KT 0300 FG OVC000 06/06 Q1012 RED
21:55
L
6 °C 550 m - 200° 200° 4 kt METAR EHLW 282055Z AUTO 20004KT 0550 FG OVC000 06/06 Q1012 RED
21:25
L
6 °C 400 m - 200° 200° 3 kt METAR EHLW 282025Z AUTO 20003KT 0400 FG OVC000 06/06 Q1012 RED
20:55
L
7 °C 350 m - 190° 190° 4 kt METAR EHLW 281955Z AUTO 19004KT 150V210 0350 FG OVC000 07/07 Q1012 RED
20:25
L
7 °C 600 m - 190° 190° 3 kt METAR EHLW 281925Z AUTO 19003KT 0600 FG OVC000 07/07 Q1012 RED
19:55
L
7 °C 350 m - 190° 190° 6 kt METAR EHLW 281855Z AUTO 19006KT 0350 FG OVC000 07/07 Q1011 RED
19:28
L
8 °C 350 m - 190° 190° 6 kt METAR EHLW 281828Z AUTO 19006KT 0350 FG OVC000 08/08 Q1011 RED
19:25
L
8 °C 400 m - 190° 190° 6 kt METAR EHLW 281825Z AUTO 19006KT 0400 R23/0225N FG OVC000 08/08 Q1011 RED NOSIG
18:58
L
8 °C 400 m - 190° 190° 6 kt METAR EHLW 281758Z AUTO 19006KT 0400 R23/0175N FG OVC000 08/08 Q1011 RED NOSIG
18:55
L
8 °C 400 m - 190° 190° 6 kt METAR EHLW 281755Z AUTO 19006KT 0400 R23/0175N FG OVC000 08/08 Q1011 RED NOSIG
18:25
L
8 °C 300 m - 190° 190° 4 kt METAR EHLW 281725Z AUTO 19004KT 160V230 0300 R23/0125N FG OVC000 08/08 Q1011 RED NOSIG
17:55
L
8 °C 250 m - 210° 210° 5 kt METAR EHLW 281655Z AUTO 21005KT 170V240 0250 R23/0125N FG OVC000 08/08 Q1010 RED NOSIG
17:25
L
8 °C 250 m - 210° 210° 5 kt METAR EHLW 281625Z AUTO 21005KT 170V230 0250 R23/0150N FG OVC000 08/08 Q1010 RED NOSIG
17:05
L
8 °C 300 m - 200° 200° 4 kt METAR EHLW 281605Z AUTO 20004KT 0300 R23/0150N FG OVC000 08/08 Q1010 RED NOSIG
16:55
L
8 °C 350 m - 210° 210° 5 kt METAR EHLW 281555Z AUTO 21005KT 0350 R23/0250N FG OVC000 08/08 Q1010 RED NOSIG
16:39
L
8 °C 400 m - 210° 210° 5 kt METAR EHLW 281539Z AUTO 21005KT 170V230 0400 R23/0300N FG OVC000 08/08 Q1010 RED NOSIG
16:25
L
8 °C 400 m - 200° 200° 5 kt METAR EHLW 281525Z AUTO 20005KT 0400 R23/0275N FG OVC000 08/08 Q1010 RED NOSIG
16:07
L
8 °C 450 m - 210° 210° 5 kt SPECI EHLW 281507Z AUTO 21005KT 0450 R23/0275N FG OVC000 08/08 Q1010 RED NOSIG
15:55
L
8 °C 400 m - 200° 200° 7 kt METAR EHLW 281455Z AUTO 20007KT 170V230 0400 R23/0400N FG OVC000 08/08 Q1010 RED NOSIG
15:43
L
9 °C 400 m - 200° 200° 7 kt METAR EHLW 281443Z AUTO 20007KT 170V230 0400 R23/0450D FG OVC000 09/08 Q1010 RED NOSIG
15:39
L
9 °C 350 m 100 ft 210° 210° 7 kt METAR EHLW 281439Z AUTO 21007KT 0350 R23/0500N FG OVC001 09/08 Q1009 RED NOSIG
15:25
L
9 °C 500 m 100 ft 200° 200° 7 kt METAR EHLW 281425Z AUTO 20007KT 0500 R23/0750N FG OVC001 09/09 Q1009 RED NOSIG
15:08
L
9 °C 650 m 100 ft 210° 210° 7 kt METAR EHLW 281408Z AUTO 21007KT 0650 R23/1300D FG OVC001 09/08 Q1009 RED NOSIG
14:55
L
9 °C 1.4 km 100 ft 200° 200° 7 kt METAR EHLW 281355Z AUTO 20007KT 180V240 1400 R23/2200N BR OVC001 09/08 Q1009 RED NOSIG
14:34
L
9 °C 1.8 km 100 ft 200° 200° 7 kt METAR EHLW 281334Z AUTO 20007KT 1800 R23/2600D BR OVC001 09/09 Q1009 RED NOSIG
14:30
L
9 °C 1.9 km 200 ft 200° 200° 7 kt METAR EHLW 281330Z AUTO 20007KT 1900 R23/2700D BR OVC002 09/09 Q1009 AMB NOSIG
14:25
L
9 °C 2.1 km 200 ft 210° 210° 7 kt METAR EHLW 281325Z AUTO 21007KT 170V230 2100 R23/2800N BR OVC002 09/08 Q1009 AMB NOSIG
14:19
L
9 °C 2.2 km 200 ft 210° 210° 7 kt METAR EHLW 281319Z AUTO 21007KT 2200 BR OVC002 09/08 Q1009 AMB NOSIG
13:55
L
9 °C 2.2 km 200 ft 200° 200° 7 kt METAR EHLW 281255Z AUTO 20007KT 170V230 2200 BR OVC002 09/09 Q1009 AMB
13:44
L
9 °C 1.9 km 200 ft 200° 200° 4 kt METAR EHLW 281244Z AUTO 20004KT 170V230 1900 BR OVC002 09/09 Q1009 AMB
13:36
L
9 °C 1.9 km 200 ft 200° 200° 5 kt METAR EHLW 281236Z AUTO 20005KT 170V230 1900 BR OVC002 09/08 Q1009 AMB
13:29
L
9 °C 1.9 km 100 ft 190° 190° 7 kt METAR EHLW 281229Z AUTO 19007KT 150V220 1900 BR OVC001 09/08 Q1009 RED
13:25
L
9 °C 2 km 200 ft 190° 190° 7 kt METAR EHLW 281225Z AUTO 19007KT 150V230 2000 BR OVC002 09/08 Q1009 AMB
12:55
L
9 °C 2.9 km 200 ft 200° 200° 7 kt METAR EHLW 281155Z AUTO 20007KT 140V230 2900 BR OVC002 09/08 Q1009 AMB
12:25
L
9 °C 3 km 200 ft 200° 200° 6 kt METAR EHLW 281125Z AUTO 20006KT 160V220 3000 BR OVC002 09/08 Q1008 AMB
11:55
L
9 °C 3.5 km 200 ft 210° 210° 9 kt METAR EHLW 281055Z AUTO 21009KT 170V230 3500 BR OVC002 09/08 Q1009 AMB
11:43
L
9 °C 4.1 km 200 ft 200° 200° 7 kt METAR EHLW 281043Z AUTO 20007KT 170V240 4100 BR OVC002 09/08 Q1009 AMB
11:30
L
9 °C 3 km 200 ft 210° 210° 7 kt METAR EHLW 281030Z AUTO 21007KT 170V230 3000 -RA BKN002 BKN008 OVC010 09/08 Q1008 AMB
11:29
I
9 °C 2.7 km 1,000 ft 210° 210° 8 kt METAR EHLW 281029Z AUTO 21008KT 170V230 2700 -SHRA SCT002 BKN010 BKN043 09/08 Q1008 AMB
11:25
I
9 °C 2.7 km 1,000 ft 210° 210° 8 kt METAR EHLW 281025Z AUTO 21008KT 170V230 2700 -RA SCT002 BKN010 OVC050 09/08 Q1008 RERA REDZ AMB
11:18
L
9 °C 2.8 km 200 ft 200° 200° 7 kt METAR EHLW 281018Z AUTO 20007KT 2800 +DZRA BKN002 BKN046 OVC050 09/08 Q1008 AMB
10:56
L
9 °C 2.5 km 200 ft 200° 200° 8 kt METAR EHLW 280956Z AUTO 20008KT 160V230 2500 +DZ BKN002 BKN004 OVC006 09/08 Q1008 AMB
10:55
L
9 °C 2.8 km 400 ft 210° 210° 8 kt METAR EHLW 280955Z AUTO 21008KT 160V230 2800 DZRA SCT002 BKN004 OVC006 09/08 Q1008 AMB
10:41
L
8 °C 2.7 km 200 ft 210° 210° 8 kt METAR EHLW 280941Z AUTO 21008KT 170V230 2700 BR BKN002 BKN005 OVC006 08/08 Q1008 AMB
10:26
L
8 °C 2.6 km 200 ft 200° 200° 8 kt METAR EHLW 280926Z AUTO 20008KT 160V230 2600 +DZRA BKN002 OVC004 08/08 Q1008 AMB
10:25
L
8 °C 2.7 km 200 ft 200° 200° 8 kt METAR EHLW 280925Z AUTO 20008KT 160V220 2700 -RA BKN002 OVC003 08/08 Q1008 AMB
09:55
L
8 °C 2.1 km 200 ft 200° 200° 9 kt METAR EHLW 280855Z AUTO 20009KT 160V220 2100 -DZ BKN002 OVC004 08/08 Q1008 REDZ AMB
09:25
L
8 °C 3.5 km 200 ft 190° 190° 8 kt METAR EHLW 280825Z AUTO 19008KT 160V220 3500 DZ OVC002 08/08 Q1007 AMB
09:18
L
8 °C 3.6 km 200 ft 190° 190° 9 kt METAR EHLW 280818Z AUTO 19009KT 150V220 3600 -DZ OVC002 08/08 Q1007 AMB
08:56
L
8 °C 4.2 km 200 ft 190° 190° 10 kt METAR EHLW 280756Z AUTO 19010KT 160V220 4200 -DZ OVC002 08/08 Q1007 AMB
08:55
L
8 °C 4.3 km 300 ft 190° 190° 9 kt METAR EHLW 280755Z AUTO 19009KT 150V220 4300 DZ OVC003 08/08 Q1007 YLO
08:45
L
8 °C 4.4 km 200 ft 190° 190° 8 kt SPECI EHLW 280745Z AUTO 19008KT 150V210 4400 BR BKN002 OVC003 08/08 Q1007 AMB
08:25
L
8 °C 6 km 200 ft 180° 180° 8 kt METAR EHLW 280725Z AUTO 18008KT 140V200 6000 BR OVC002 08/08 Q1007 REDZ AMB
08:11
L
8 °C 6 km 300 ft 170° 170° 8 kt METAR EHLW 280711Z AUTO 17008KT 130V200 6000 BR OVC003 08/07 Q1007 YLO
08:06
L
8 °C 5 km 300 ft 170° 170° 7 kt METAR EHLW 280706Z AUTO 17007KT 130V200 5000 -DZ SCT002 OVC003 08/07 Q1007 AMB
07:59
L
8 °C 4.4 km 300 ft 170° 170° 7 kt METAR EHLW 280659Z AUTO 17007KT 150V210 4400 DZ SCT002 BKN003 BKN005 08/07 Q1007 AMB
07:55
I
8 °C 2.7 km 500 ft 180° 180° 8 kt METAR EHLW 280655Z AUTO 18008KT 150V210 2700 +DZ SCT002 SCT003 BKN005 08/07 Q1007 AMB
07:29
L
8 °C 2.6 km 200 ft 180° 180° 6 kt METAR EHLW 280629Z AUTO 18006KT 150V210 2600 +DZ BKN002 OVC003 08/07 Q1007 AMB
07:25
L
8 °C 2.5 km 300 ft 180° 180° 6 kt METAR EHLW 280625Z AUTO 18006KT 150V210 2500 +DZ SCT002 BKN003 OVC004 08/07 Q1007 AMB
06:56
L
7 °C 3.4 km 200 ft 190° 190° 6 kt METAR EHLW 280556Z AUTO 19006KT 150V220 3400 DZ OVC002 07/07 Q1007 AMB
06:55
L
7 °C 4.2 km 200 ft 190° 190° 6 kt METAR EHLW 280555Z AUTO 19006KT 150V220 4200 DZ OVC002 07/07 Q1007 AMB
06:35
L
7 °C 5 km 200 ft 200° 200° 6 kt METAR EHLW 280535Z AUTO 20006KT 160V220 5000 BR OVC002 07/07 Q1007 AMB
06:25
L
7 °C 5 km 200 ft 190° 190° 6 kt METAR EHLW 280525Z AUTO 19006KT 150V220 5000 BR OVC002 07/07 Q1007 AMB
06:13
L
7 °C 4.4 km 200 ft 190° 190° 7 kt METAR EHLW 280513Z AUTO 19007KT 4400 BR OVC002 07/07 Q1007 AMB
05:55
L
7 °C 2.9 km 200 ft 180° 180° 7 kt METAR EHLW 280455Z AUTO 18007KT 140V210 2900 BR OVC002 07/07 Q1007 AMB
05:38
L
7 °C 4 km 200 ft 180° 180° 9 kt METAR EHLW 280438Z AUTO 18009KT 140V210 4000 BR OVC002 07/07 Q1007 AMB
05:25
L
7 °C 3.8 km 200 ft 180° 180° 8 kt METAR EHLW 280425Z AUTO 18008KT 140V210 3800 BR OVC002 07/06 Q1007 REDZ AMB
04:55
L
7 °C 2.8 km 200 ft 180° 180° 8 kt METAR EHLW 280355Z AUTO 18008KT 140V210 2800 DZ BKN002 OVC003 07/06 Q1007 AMB
04:25
L
6 °C 2.6 km 200 ft 170° 170° 7 kt METAR EHLW 280325Z AUTO 17007KT 140V200 2600 DZ BKN002 OVC003 06/06 Q1007 AMB
03:55
L
6 °C 2.7 km 200 ft 160° 160° 7 kt METAR EHLW 280255Z AUTO 16007KT 130V200 2700 DZ BKN002 OVC003 06/06 Q1007 AMB
03:25
L
6 °C 2.7 km 300 ft 160° 160° 7 kt METAR EHLW 280225Z AUTO 16007KT 120V190 2700 DZ BKN003 OVC004 06/06 Q1007 YLO
02:55
L
6 °C 3.2 km 400 ft 150° 150° 8 kt METAR EHLW 280155Z AUTO 15008KT 120V180 3200 -DZ BKN004 OVC005 06/06 Q1008 YLO
02:25
L
6 °C 3 km 400 ft 150° 150° 8 kt METAR EHLW 280125Z AUTO 15008KT 110V180 3000 -DZ FEW003 BKN004 OVC006 06/06 Q1008 REDZ YLO
02:20
L
6 °C 3 km 400 ft 150° 150° 8 kt METAR EHLW 280120Z AUTO 15008KT 110V180 3000 DZ FEW003 BKN004 BKN005 06/06 Q1008 YLO
02:16
I
6 °C 3 km 500 ft 150° 150° 8 kt METAR EHLW 280116Z AUTO 15008KT 120V190 3000 DZ SCT003 BKN005 OVC006 06/06 Q1008 YLO
02:01
I
6 °C 3.6 km 500 ft 150° 150° 7 kt METAR EHLW 280101Z AUTO 15007KT 120V190 3600 DZ SCT004 BKN005 OVC006 06/06 Q1008 YLO
01:55
I
6 °C 4.3 km 500 ft 150° 150° 7 kt METAR EHLW 280055Z AUTO 15007KT 120V190 4300 DZ SCT004 BKN005 OVC006 06/06 Q1008 YLO
01:41
I
6 °C 4.7 km 500 ft 150° 150° 8 kt METAR EHLW 280041Z AUTO 15008KT 4700 +DZRA FEW004 BKN005 BKN006 FEW015CB 06/06 Q1008 YLO
01:25
I
6 °C 3.9 km 600 ft 150° 150° 8 kt METAR EHLW 280025Z AUTO 15008KT 110V180 3900 -RA SCT004 BKN006 OVC007 06/06 Q1009 RERA REDZ YLO
01:16
I
6 °C 6 km 600 ft 150° 150° 8 kt METAR EHLW 280016Z AUTO 15008KT 120V180 6000 +DZRA SCT004 BKN006 OVC007 06/06 Q1009 YLO
01:02
I
6 °C 6 km 600 ft 150° 150° 7 kt METAR EHLW 280002Z AUTO 15007KT 120V180 6000 -RA SCT005 BKN006 BKN007 FEW015CB 06/06 Q1009 YLO
00:55
I
6 °C 7 km 600 ft 150° 150° 9 kt METAR EHLW 272355Z AUTO 15009KT 120V180 7000 +DZRA SCT005 BKN006 BKN007 FEW015CB 06/05 Q1009 YLO
00:41
I
6 °C 7 km 700 ft 150° 150° 8 kt METAR EHLW 272341Z AUTO 15008KT 120V180 7000 -RA FEW005 BKN007 BKN008 FEW015CB 06/06 Q1009 GRN
00:25
I
6 °C 7 km 600 ft 150° 150° 8 kt METAR EHLW 272325Z AUTO 15008KT 120V190 7000 -RA FEW005 BKN006 BKN007 FEW015CB 06/06 Q1009 YLO
00:11
I
6 °C 6 km 700 ft 160° 160° 9 kt METAR EHLW 272311Z AUTO 16009KT 120V190 6000 -RA SCT005 BKN007 BKN009 BKN015CB 06/05 Q1010 YLO

November 27, 2022

Time Code Weather Temp. Visibility Ceiling Wind METAR/SPECI
23:59
I
6 °C 6 km 600 ft 160° 160° 8 kt METAR EHLW 272259Z AUTO 16008KT 110V180 6000 RA FEW005 BKN006 BKN007 SCT015CB 06/06 Q1010 YLO
23:55
I
6 °C 6 km 700 ft 160° 160° 8 kt METAR EHLW 272255Z AUTO 16008KT 110V180 6000 -RA FEW005 SCT006 BKN007 SCT015CB 06/06 Q1010 YLO
23:40
I
6 °C 6 km 700 ft 160° 160° 8 kt METAR EHLW 272240Z AUTO 16008KT 120V190 6000 -RA FEW004 SCT006 BKN007 BKN015CB 06/06 Q1010 YLO
23:25
I
6 °C 6 km 700 ft 150° 150° 8 kt METAR EHLW 272225Z AUTO 15008KT 120V200 6000 RA FEW004 SCT006 BKN007 SCT015CB 06/06 Q1010 RERA REDZ YLO
23:02
I
6 °C 7 km 600 ft 150° 150° 7 kt METAR EHLW 272202Z AUTO 15007KT 120V180 7000 -RA SCT005 BKN006 BKN007 FEW015CB 06/06 Q1010 YLO
22:55
I
6 °C 7 km 600 ft 150° 150° 8 kt METAR EHLW 272155Z AUTO 15008KT 120V180 7000 +DZRA SCT005 BKN006 BKN007 FEW015CB 06/06 Q1010 YLO
22:36
I
6 °C 6 km 600 ft 150° 150° 9 kt METAR EHLW 272136Z AUTO 15009KT 120V180 6000 -RA SCT004 BKN006 BKN007 FEW015CB 06/06 Q1011 YLO
22:30
I
6 °C 6 km 500 ft 150° 150° 8 kt METAR EHLW 272130Z AUTO 15008KT 110V180 6000 +DZRA SCT004 BKN005 BKN007 FEW015CB 06/06 Q1011 YLO
22:25
I
6 °C 6 km 500 ft 150° 150° 8 kt METAR EHLW 272125Z AUTO 15008KT 6000 -RADZ FEW004 BKN005 BKN007 FEW015CB 06/06 Q1011 YLO
22:16
I
6 °C 6 km 600 ft 140° 140° 8 kt METAR EHLW 272116Z AUTO 14008KT 110V170 6000 +DZRA FEW004 BKN006 BKN007 FEW015CB 06/06 Q1011 YLO
21:56
I
6 °C 7 km 800 ft 140° 140° 8 kt METAR EHLW 272056Z AUTO 14008KT 110V170 7000 +DZ FEW005 SCT006 BKN008 06/06 Q1011 YLO
21:55
M
6 °C 7 km 1,000 ft 140° 140° 8 kt METAR EHLW 272055Z AUTO 14008KT 110V170 7000 -RADZ FEW005 SCT007 BKN010 06/06 Q1011 GRN
21:43
M
6 °C 7 km 1,300 ft 140° 140° 8 kt METAR EHLW 272043Z AUTO 14008KT 7000 +DZRA FEW006 SCT010 BKN013 FEW015CB 06/06 Q1011 GRN
21:40
M
6 °C 7 km 1,500 ft 140° 140° 8 kt METAR EHLW 272040Z AUTO 14008KT 7000 -RA FEW006 BKN015CB 06/05 Q1011 WHT
21:25
M
6 °C 8 km 1,500 ft 150° 150° 8 kt METAR EHLW 272025Z AUTO 15008KT 8000 -RA BKN015CB 06/05 Q1012 RERA REDZ WHT
21:15
M
6 °C 7 km 1,600 ft 150° 150° 7 kt METAR EHLW 272015Z AUTO 15007KT 110V180 7000 +DZ FEW007 FEW015CB OVC016 06/05 Q1012 WHT
20:55
M
7 °C 10 km+ 1,600 ft 150° 150° 8 kt METAR EHLW 271955Z AUTO 15008KT 120V180 9999 DZ OVC016 07/05 Q1012 WHT
20:43
M
7 °C 10 km+ 1,600 ft 150° 150° 8 kt METAR EHLW 271943Z AUTO 15008KT 120V180 9999 +DZ OVC016 07/05 Q1012 WHT
20:27
M
7 °C 10 km+ 1,600 ft 150° 150° 8 kt METAR EHLW 271927Z AUTO 15008KT 120V200 9999 +DZRA FEW014 OVC016 07/05 Q1012 WHT
20:25
M
7 °C 10 km+ 1,500 ft 150° 150° 7 kt METAR EHLW 271925Z AUTO 15007KT 120V190 9999 DZ OVC015 07/05 Q1012 WHT
19:55
M
7 °C 10 km+ 1,600 ft 150° 150° 6 kt METAR EHLW 271855Z AUTO 15006KT 9999 -RADZ OVC016 07/05 Q1013 WHT
19:25
M
7 °C 10 km+ 1,600 ft 150° 150° 6 kt METAR EHLW 271825Z AUTO 15006KT 120V180 9999 OVC016 07/05 Q1013 WHT
18:55
M
7 °C 10 km+ 1,500 ft 150° 150° 7 kt METAR EHLW 271755Z AUTO 15007KT 9999 -DZ OVC015 07/05 Q1013 WHT
18:40
M
7 °C 10 km+ 1,600 ft 150° 150° 6 kt METAR EHLW 271740Z AUTO 15006KT 120V200 9999 -DZRA SCT014 OVC016 07/05 Q1013 GRN
18:25
M
7 °C 10 km+ 1,500 ft 160° 160° 7 kt METAR EHLW 271725Z AUTO 16007KT 120V190 9999 BKN015 OVC018 07/05 Q1014 WHT
18:13
M
7 °C 10 km+ 1,500 ft 150° 150° 6 kt METAR EHLW 271713Z AUTO 15006KT 120V190 9999 -DZ BKN015 OVC018 07/05 Q1014 WHT
18:12
M
7 °C 10 km+ 1,400 ft 160° 160° 6 kt METAR EHLW 271712Z AUTO 16006KT 120V180 9999 -DZ BKN014 OVC017 07/05 Q1014 GRN
18:00
M
7 °C 10 km+ 1,400 ft 160° 160° 7 kt METAR EHLW 271700Z AUTO 16007KT 120V180 9999 DZRA BKN014 OVC016 07/05 Q1014 GRN
17:56
M
7 °C 10 km+ 1,400 ft 160° 160° 8 kt METAR EHLW 271656Z AUTO 16008KT 120V200 9999 -RA BKN014 OVC016 07/05 Q1014 GRN
17:55
M
7 °C 10 km+ 1,500 ft 160° 160° 9 kt METAR EHLW 271655Z AUTO 16009KT 130V200 9999 OVC015 07/05 Q1014 WHT
17:25
M
7 °C 10 km+ 1,300 ft 150° 150° 8 kt METAR EHLW 271625Z AUTO 15008KT 110V190 9999 -DZ OVC013 07/05 Q1014 REDZ GRN
17:06
M
7 °C 10 km+ 1,400 ft 160° 160° 8 kt METAR EHLW 271606Z AUTO 16008KT 130V210 9999 DZ BKN014 OVC017 07/05 Q1014 GRN
17:05
M
6 °C 10 km+ 1,500 ft 160° 160° 8 kt METAR EHLW 271605Z AUTO 16008KT 130V210 9999 DZ OVC015 06/05 Q1014 WHT
16:55
M
6 °C 10 km+ 1,500 ft 160° 160° 9 kt METAR EHLW 271555Z AUTO 16009KT 130V200 9999 -DZ FEW012 OVC015 06/05 Q1015 WHT
16:43
M
6 °C 10 km+ 1,500 ft 160° 160° 9 kt METAR EHLW 271543Z AUTO 16009KT 130V190 9999 FEW013 OVC015 06/05 Q1015 WHT
16:39
M
6 °C 10 km+ 1,600 ft 160° 160° 9 kt METAR EHLW 271539Z AUTO 16009KT 110V190 9999 -DZ SCT013 OVC016 06/05 Q1015 GRN
16:33
M
6 °C 10 km+ 1,500 ft 160° 160° 9 kt METAR EHLW 271533Z AUTO 16009KT 110V190 9999 -RA FEW013 OVC015 06/05 Q1015 WHT
16:26
M
6 °C 10 km+ 1,500 ft 160° 160° 9 kt METAR EHLW 271526Z AUTO 16009KT 120V180 9999 SCT013 OVC015 06/05 Q1015 GRN
16:25
M
6 °C 10 km+ 1,500 ft 160° 160° 9 kt METAR EHLW 271525Z AUTO 16009KT 120V180 9999 OVC015 06/05 Q1015 WHT
16:17
M
6 °C 10 km+ 1,500 ft 160° 160° 10 kt METAR EHLW 271517Z AUTO 16010KT 120V210 9999 FEW012 OVC015 06/05 Q1015 WHT
15:55
M
7 °C 10 km+ 1,400 ft 160° 160° 10 kt METAR EHLW 271455Z AUTO 16010KT 120V200 9999 BKN014 OVC016 07/05 Q1015 GRN
15:29
M
7 °C 10 km+ 1,500 ft 160° 160° 10 kt METAR EHLW 271429Z AUTO 16010KT 120V190 9999 -DZ OVC015 07/05 Q1015 WHT
15:25
M
7 °C 10 km+ 1,400 ft 160° 160° 9 kt METAR EHLW 271425Z AUTO 16009KT 120V200 9999 -DZ OVC014 07/05 Q1015 REDZ GRN
15:08
M
6 °C 10 km+ 1,000 ft 160° 160° 10 kt METAR EHLW 271408Z AUTO 16010KT 140V210 9999 DZ FEW008 BKN010 OVC013 06/05 Q1016 GRN
14:55
I
6 °C 10 km+ 800 ft 170° 170° 11 kt METAR EHLW 271355Z AUTO 17011KT 130V200 9999 -DZ FEW007 OVC008 06/05 Q1016 GRN
14:36
I
6 °C 7 km 600 ft 170° 170° 12 kt METAR EHLW 271336Z AUTO 17012KT 130V200 7000 BR SCT005 OVC006 06/05 Q1016 YLO
14:25
I
6 °C 10 km+ 600 ft 170° 170° 11 kt METAR EHLW 271325Z AUTO 17011KT 140V210 9999 BKN006 BKN007 OVC009 06/05 Q1016 YLO
14:08
I
6 °C 9 km 600 ft 170° 170° 10 kt METAR EHLW 271308Z AUTO 17010KT 130V200 9000 BR BKN006 OVC008 06/05 Q1016 YLO
13:59
I
6 °C 6 km 700 ft 170° 170° 12 kt METAR EHLW 271259Z AUTO 17012KT 140V200 6000 BR FEW006 BKN007 OVC008 06/05 Q1016 GRN
13:55
I
6 °C 6 km 700 ft 170° 170° 12 kt METAR EHLW 271255Z AUTO 17012KT 140V220 6000 BR SCT006 BKN007 OVC009 06/05 Q1016 YLO
13:39
I
6 °C 6 km 800 ft 170° 170° 11 kt METAR EHLW 271239Z AUTO 17011KT 140V200 6000 BR SCT007 BKN008 OVC009 06/05 Q1017 GRN
13:34
I
6 °C 5 km 800 ft 170° 170° 11 kt METAR EHLW 271234Z AUTO 17011KT 140V200 5000 BR SCT006 BKN008 OVC009 06/05 Q1017 YLO
13:25
I
6 °C 4.1 km 800 ft 170° 170° 11 kt METAR EHLW 271225Z AUTO 17011KT 140V210 4100 -DZ FEW005 SCT007 BKN008 06/05 Q1017 REDZ GRN
13:20
I
6 °C 4 km 800 ft 170° 170° 11 kt METAR EHLW 271220Z AUTO 17011KT 140V210 4000 DZ FEW005 SCT006 BKN008 06/05 Q1017 YLO
13:17
I
6 °C 4 km 1,000 ft 170° 170° 12 kt METAR EHLW 271217Z AUTO 17012KT 140V210 4000 -UP FEW005 SCT007 OVC010 06/05 Q1017 GRN
13:06
I
6 °C 4.3 km 800 ft 170° 170° 12 kt METAR EHLW 271206Z AUTO 17012KT 130V200 4300 BR SCT007 BKN008 OVC009 06/05 Q1017 GRN
12:59
M
6 °C 6 km 1,000 ft 170° 170° 12 kt SPECI EHLW 271159Z AUTO 17012KT 140V200 6000 BR FEW007 SCT008 OVC010 06/05 Q1017 GRN
12:55
M
6 °C 8 km 1,000 ft 170° 170° 12 kt METAR EHLW 271155Z AUTO 17012KT 130V200 8000 BR FEW007 SCT008 BKN010 06/05 Q1017 GRN
12:39
M
6 °C 9 km 1,100 ft 170° 170° 12 kt METAR EHLW 271139Z AUTO 17012KT 130V200 9000 BR FEW008 BKN011 OVC013 06/05 Q1017 GRN
12:25
I
6 °C 8 km 800 ft 170° 170° 12 kt METAR EHLW 271125Z AUTO 17012KT 130V210 8000 BR SCT007 BKN008 OVC010 06/05 Q1018 GRN
12:13
I
6 °C 7 km 900 ft 170° 170° 13 kt METAR EHLW 271113Z AUTO 17013KT 130V200 7000 BR SCT007 BKN009 BKN010 06/05 Q1018 GRN
12:09
M
6 °C 7 km 1,000 ft 170° 170° 12 kt METAR EHLW 271109Z AUTO 17012KT 120V200 7000 BR FEW007 SCT008 BKN010 06/05 Q1018 GRN
12:07
M
6 °C 7 km 1,100 ft 170° 170° 11 kt METAR EHLW 271107Z AUTO 17011KT 120V210 7000 BR FEW007 SCT009 BKN011 06/05 Q1018 GRN
11:55
M
6 °C 7 km 1,400 ft 170° 170° 11 kt METAR EHLW 271055Z AUTO 17011KT 130V200 7000 BR FEW007 SCT009 OVC014 06/05 Q1018 REDZ GRN
11:46
M
6 °C 8 km 1,400 ft 170° 170° 10 kt SPECI EHLW 271046Z AUTO 17010KT 130V200 8000 BR FEW011 BKN014 OVC017 06/05 Q1018 GRN
11:42
M
6 °C 8 km 1,700 ft 160° 160° 10 kt METAR EHLW 271042Z AUTO 16010KT 130V200 8000 -DZ SCT014 OVC017 06/05 Q1018 GRN
11:41
M
6 °C 10 km+ 1,700 ft 160° 160° 10 kt METAR EHLW 271041Z AUTO 16010KT 130V200 9999 DZ SCT014 BKN017 OVC020 06/05 Q1018 GRN
11:31
M
6 °C 10 km+ 1,500 ft 170° 170° 11 kt METAR EHLW 271031Z AUTO 17011KT 130V200 9999 DZRA BKN015 OVC020 06/05 Q1018 WHT
11:25
M
6 °C 7 km 1,900 ft 170° 170° 11 kt METAR EHLW 271025Z AUTO 17011KT 140V210 7000 -RADZ SCT015 BKN019 BKN023 06/05 Q1018 WHT
11:16
M
6 °C 10 km+ 2,500 ft 170° 170° 10 kt METAR EHLW 271016Z AUTO 17010KT 130V200 9999 -DZ SCT016 BKN025 OVC029 06/04 Q1018 WHT
11:09
M
6 °C 10 km+ 2,900 ft 170° 170° 11 kt METAR EHLW 271009Z AUTO 17011KT 140V200 9999 -DZ FEW018 BKN029 OVC033 06/04 Q1019 BLU
10:55
V
6 °C 10 km+ 3,600 ft 170° 170° 11 kt METAR EHLW 270955Z AUTO 17011KT 120V200 9999 -SHRA FEW029 BKN036 OVC045 06/04 Q1019 BLU

We and third parties follow your internet behavior on our website with cookies. If you continue, we assume you agree with our cookie policy.